createdAt,value
2022-09-11T00:02:01.265Z,6.68
2022-09-11T00:04:29.229Z,6.57
2022-09-11T00:06:57.444Z,7.18
2022-09-11T00:09:25.312Z,5.70
2022-09-11T00:11:53.667Z,6.50
2022-09-11T00:14:21.638Z,5.70
2022-09-11T00:16:49.503Z,6.43
2022-09-11T00:19:20.254Z,6.53
2022-09-11T00:21:50.602Z,7.37
2022-09-11T00:24:18.529Z,6.70
2022-09-11T00:26:47.604Z,5.82
2022-09-11T00:29:15.713Z,6.45
2022-09-11T00:31:43.571Z,5.18
2022-09-11T00:34:11.667Z,5.90
2022-09-11T00:36:41.863Z,5.90
2022-09-11T00:39:14.588Z,5.40
2022-09-11T00:41:46.316Z,5.88
2022-09-11T00:44:16.297Z,5.40
2022-09-11T00:46:53.380Z,6.00
2022-09-11T00:49:46.841Z,6.20
2022-09-11T00:52:31.166Z,5.68
2022-09-11T00:55:14.971Z,5.00
2022-09-11T00:57:51.568Z,6.05
2022-09-11T01:00:19.977Z,5.68
2022-09-11T01:02:51.706Z,5.55
2022-09-11T01:07:54.418Z,5.00
2022-09-11T01:10:36.864Z,5.35
2022-09-11T01:13:10.928Z,6.10
2022-09-11T01:16:13.108Z,5.80
2022-09-11T01:19:28.696Z,5.47
2022-09-11T01:22:58.011Z,5.70
2022-09-11T01:26:11.418Z,6.53
2022-09-11T01:28:51.800Z,7.55
2022-09-11T01:31:26.970Z,6.97
2022-09-11T01:34:06.211Z,7.57
2022-09-11T01:36:42.122Z,6.47
2022-09-11T01:39:11.273Z,6.70
2022-09-11T01:41:46.400Z,7.75
2022-09-11T01:44:26.416Z,8.23
2022-09-11T01:46:54.719Z,8.90
2022-09-11T01:49:37.132Z,10.40
2022-09-11T01:52:13.031Z,9.75
2022-09-11T01:55:13.924Z,8.95
2022-09-11T01:58:07.249Z,11.52
2022-09-11T02:00:40.436Z,11.40
2022-09-11T02:03:16.607Z,12.48
2022-09-11T02:05:53.248Z,12.32
2022-09-11T02:08:50.181Z,13.27
2022-09-11T02:11:22.360Z,12.93
2022-09-11T02:14:22.584Z,10.90
2022-09-11T02:17:01.726Z,10.30
2022-09-11T02:19:31.428Z,10.65
2022-09-11T02:21:59.703Z,8.98
2022-09-11T02:24:28.834Z,9.68
2022-09-11T02:27:08.678Z,9.50
2022-09-11T02:29:37.118Z,9.73
2022-09-11T02:32:06.069Z,8.63
2022-09-11T02:34:37.087Z,8.65
2022-09-11T02:37:25.871Z,8.90
2022-09-11T02:40:28.115Z,8.70
2022-09-11T02:43:50.961Z,8.07
2022-09-11T02:46:26.999Z,7.90
2022-09-11T02:49:08.059Z,7.95
2022-09-11T02:51:59.290Z,7.75
2022-09-11T02:55:41.941Z,7.75
2022-09-11T02:58:18.060Z,7.95
2022-09-11T03:00:48.243Z,8.55
2022-09-11T03:03:16.222Z,8.35
2022-09-11T03:05:44.190Z,8.07
2022-09-11T03:08:13.570Z,8.35
2022-09-11T03:10:42.348Z,7.20
2022-09-11T03:13:11.151Z,8.23
2022-09-11T03:15:39.440Z,8.25
2022-09-11T03:18:08.387Z,9.02
2022-09-11T03:20:36.961Z,8.30
2022-09-11T03:23:10.870Z,8.02
2022-09-11T03:25:40.324Z,8.57
2022-09-11T03:28:09.506Z,8.63
2022-09-11T03:30:37.515Z,7.88
2022-09-11T03:33:05.439Z,7.70
2022-09-11T03:35:33.700Z,7.25
2022-09-11T03:38:03.485Z,8.02
2022-09-11T03:40:31.803Z,7.25
2022-09-11T03:42:59.833Z,7.90
2022-09-11T03:45:28.170Z,7.65
2022-09-11T03:47:58.701Z,7.80
2022-09-11T03:50:27.030Z,7.47
2022-09-11T03:52:54.910Z,8.18
2022-09-11T03:55:24.026Z,7.25
2022-09-11T03:57:52.002Z,6.80
2022-09-11T04:00:20.390Z,7.68
2022-09-11T04:02:48.629Z,7.53
2022-09-11T04:05:29.603Z,8.10
2022-09-11T04:07:58.096Z,8.43
2022-09-11T04:10:26.033Z,7.22
2022-09-11T04:12:54.459Z,7.75
2022-09-11T04:15:23.610Z,7.93
2022-09-11T04:17:51.761Z,7.10
2022-09-11T04:20:19.878Z,6.40
2022-09-11T04:22:47.991Z,5.53
2022-09-11T04:25:16.200Z,5.38
2022-09-11T04:27:44.753Z,5.90
2022-09-11T04:30:17.321Z,5.72
2022-09-11T04:32:46.493Z,4.95
2022-09-11T04:35:14.845Z,4.75
2022-09-11T04:37:50.787Z,5.10
2022-09-11T04:40:18.861Z,4.50
2022-09-11T04:42:46.972Z,4.22
2022-09-11T04:45:15.413Z,5.22
2022-09-11T04:47:44.215Z,4.97
2022-09-11T04:50:14.089Z,4.93
2022-09-11T04:52:45.722Z,5.00
2022-09-11T04:55:13.823Z,5.25
2022-09-11T04:57:41.634Z,5.07
2022-09-11T05:00:13.710Z,6.10
2022-09-11T05:05:10.460Z,6.80
2022-09-11T05:07:38.837Z,6.35
2022-09-11T05:10:08.460Z,7.43
2022-09-11T05:12:36.469Z,7.15
2022-09-11T05:15:05.053Z,7.80
2022-09-11T05:17:33.040Z,6.70
2022-09-11T05:20:01.035Z,6.40
2022-09-11T05:22:31.592Z,7.47
2022-09-11T05:25:02.288Z,6.45
2022-09-11T05:27:30.706Z,6.85
2022-09-11T05:29:59.284Z,7.13
2022-09-11T05:32:27.097Z,7.10
2022-09-11T05:34:56.654Z,7.40
2022-09-11T05:37:25.778Z,7.60
2022-09-11T05:39:54.670Z,8.43
2022-09-11T05:42:24.937Z,7.90
2022-09-11T05:44:55.773Z,7.60
2022-09-11T05:47:26.898Z,7.72
2022-09-11T05:49:56.871Z,7.03
2022-09-11T05:52:24.993Z,7.85
2022-09-11T05:54:53.773Z,7.03
2022-09-11T05:57:21.881Z,6.80
2022-09-11T05:59:53.673Z,6.68
2022-09-11T06:02:21.759Z,6.50
2022-09-11T06:04:53.985Z,5.30
2022-09-11T06:07:24.575Z,6.10
2022-09-11T06:09:53.599Z,6.28
2022-09-11T06:12:21.926Z,4.82
2022-09-11T06:14:51.728Z,4.63
2022-09-11T06:17:19.687Z,5.00
2022-09-11T06:22:34.807Z,5.25
2022-09-11T06:25:02.717Z,4.47
2022-09-11T06:27:30.973Z,4.40
2022-09-11T06:29:59.226Z,4.07
2022-09-11T06:32:27.072Z,5.03
2022-09-11T06:34:55.569Z,3.90
2022-09-11T06:37:24.205Z,3.88
2022-09-11T06:39:52.572Z,4.60
2022-09-11T06:42:27.274Z,3.78
2022-09-11T06:44:58.737Z,4.75
2022-09-11T06:47:30.302Z,4.18
2022-09-11T06:49:58.461Z,4.38
2022-09-11T06:52:37.405Z,4.57
2022-09-11T06:55:13.602Z,4.00
2022-09-11T06:57:48.785Z,4.28
2022-09-11T07:00:22.458Z,3.95
2022-09-11T07:02:56.071Z,4.03
2022-09-11T07:05:25.921Z,2.78
2022-09-11T07:07:56.467Z,3.83
2022-09-11T07:10:26.551Z,3.92
2022-09-11T07:12:59.012Z,3.92
2022-09-11T07:15:27.311Z,4.38
2022-09-11T07:17:55.467Z,3.58
2022-09-11T07:20:24.029Z,3.85
2022-09-11T07:22:52.000Z,3.08
2022-09-11T07:25:21.687Z,3.25
2022-09-11T07:27:52.382Z,2.85
2022-09-11T07:30:23.053Z,2.80
2022-09-11T07:32:55.454Z,3.03
2022-09-11T07:35:23.294Z,1.92
2022-09-11T07:37:53.886Z,2.08
2022-09-11T07:40:26.329Z,2.20
2022-09-11T07:42:55.178Z,2.13
2022-09-11T07:45:23.922Z,1.60
2022-09-11T07:47:55.641Z,1.77
2022-09-11T07:50:25.372Z,2.13
2022-09-11T07:52:55.110Z,2.50
2022-09-11T07:55:23.356Z,2.17
2022-09-11T07:57:54.784Z,1.90
2022-09-11T08:00:24.192Z,2.20
2022-09-11T08:03:01.242Z,2.47
2022-09-11T08:05:34.682Z,2.10
2022-09-11T08:08:02.994Z,2.22
2022-09-11T08:10:32.828Z,2.05
2022-09-11T08:13:00.999Z,1.35
2022-09-11T08:15:33.933Z,2.20
2022-09-11T08:18:04.747Z,1.90
2022-09-11T08:20:32.987Z,2.05
2022-09-11T08:23:00.975Z,1.80
2022-09-11T08:25:30.104Z,1.88
2022-09-11T08:27:59.899Z,1.63
2022-09-11T08:30:28.884Z,2.30
2022-09-11T08:32:57.211Z,1.45
2022-09-11T08:35:26.392Z,2.35
2022-09-11T08:37:55.722Z,2.08
2022-09-11T08:40:24.792Z,2.10
2022-09-11T08:43:02.693Z,3.00
2022-09-11T08:45:36.198Z,2.42
2022-09-11T08:48:08.494Z,2.45
2022-09-11T08:50:42.306Z,2.80
2022-09-11T08:53:19.224Z,2.70
2022-09-11T08:56:06.760Z,2.95
2022-09-11T08:59:50.775Z,2.70
2022-09-11T09:02:39.484Z,2.30
2022-09-11T09:05:18.771Z,2.47
2022-09-11T09:08:11.925Z,2.00
2022-09-11T09:10:47.671Z,2.90
2022-09-11T09:13:58.667Z,2.95
2022-09-11T09:16:40.343Z,2.70
2022-09-11T09:19:39.628Z,2.20
2022-09-11T09:22:53.840Z,1.60
2022-09-11T09:25:25.682Z,2.13
2022-09-11T09:28:25.691Z,2.05
2022-09-11T09:31:07.754Z,1.85
2022-09-11T09:33:46.927Z,2.22
2022-09-11T09:36:36.060Z,2.45
2022-09-11T09:39:14.274Z,1.98
2022-09-11T09:42:08.816Z,2.70
2022-09-11T09:45:27.978Z,2.72
2022-09-11T09:47:56.111Z,2.78
2022-09-11T09:50:35.079Z,2.58
2022-09-11T09:53:23.984Z,2.35
2022-09-11T09:55:54.535Z,2.47
2022-09-11T09:58:40.828Z,2.35
2022-09-11T10:01:45.917Z,2.38
2022-09-11T10:04:25.502Z,2.60
2022-09-11T10:07:14.381Z,2.47
2022-09-11T10:09:58.246Z,1.73
2022-09-11T10:12:28.571Z,2.30
2022-09-11T10:14:58.758Z,2.38
2022-09-11T10:17:29.854Z,3.10
2022-09-11T10:20:17.203Z,3.40
2022-09-11T10:22:46.600Z,3.50
2022-09-11T10:25:20.337Z,4.72
2022-09-11T10:28:27.109Z,5.38
2022-09-11T10:31:00.651Z,3.85
2022-09-11T10:33:39.008Z,3.92
2022-09-11T10:36:10.263Z,2.92
2022-09-11T10:38:48.767Z,2.58
2022-09-11T10:41:27.847Z,2.50
2022-09-11T10:44:14.208Z,2.10
2022-09-11T10:46:46.428Z,2.17
2022-09-11T10:49:23.780Z,2.58
2022-09-11T10:52:17.276Z,2.67
2022-09-11T10:55:16.419Z,2.60
2022-09-11T10:57:59.092Z,2.50
2022-09-11T11:00:32.301Z,1.60
2022-09-11T11:03:07.494Z,2.20
2022-09-11T11:06:05.081Z,1.75
2022-09-11T11:09:25.624Z,2.15
2022-09-11T11:12:21.731Z,2.10
2022-09-11T11:15:46.524Z,2.20
2022-09-11T11:18:50.369Z,2.22
2022-09-11T11:21:45.594Z,2.15
2022-09-11T11:24:25.700Z,2.00
2022-09-11T11:27:24.229Z,2.00
2022-09-11T11:30:32.804Z,1.90
2022-09-11T11:33:29.134Z,2.33
2022-09-11T11:36:07.373Z,2.03
2022-09-11T11:38:50.612Z,1.38
2022-09-11T11:41:38.184Z,2.10
2022-09-11T11:44:16.198Z,1.92
2022-09-11T11:46:52.838Z,2.00
2022-09-11T11:50:01.685Z,2.22
2022-09-11T11:52:38.680Z,2.15
2022-09-11T11:55:18.167Z,2.20
2022-09-11T11:58:13.127Z,2.22
2022-09-11T12:00:54.698Z,2.45
2022-09-11T12:03:41.801Z,2.33
2022-09-11T12:06:10.595Z,2.30
2022-09-11T12:08:46.811Z,1.95
2022-09-11T12:11:29.339Z,2.10
2022-09-11T12:13:59.089Z,1.80
2022-09-11T12:16:34.639Z,1.75
2022-09-11T12:19:05.288Z,2.33
2022-09-11T12:21:36.736Z,2.67
2022-09-11T12:24:05.084Z,2.30
2022-09-11T12:26:33.616Z,2.45
2022-09-11T12:29:14.764Z,2.13
2022-09-11T12:31:51.882Z,2.85
2022-09-11T12:34:39.469Z,2.63
2022-09-11T12:37:45.317Z,1.92
2022-09-11T12:40:24.951Z,2.75
2022-09-11T12:43:29.607Z,2.70
2022-09-11T12:45:59.086Z,2.45
2022-09-11T12:49:18.008Z,2.63
2022-09-11T12:51:51.709Z,1.92
2022-09-11T12:54:44.741Z,2.65
2022-09-11T12:57:25.995Z,2.70
2022-09-11T12:59:59.638Z,2.38
2022-09-11T13:02:51.882Z,1.98
2022-09-11T13:05:41.262Z,2.60
2022-09-11T13:08:22.541Z,2.28
2022-09-11T13:10:50.888Z,2.33
2022-09-11T13:13:36.134Z,2.05
2022-09-11T13:16:35.081Z,2.20
2022-09-11T13:19:41.334Z,3.10
2022-09-11T13:22:28.799Z,2.90
2022-09-11T13:25:32.539Z,2.85
2022-09-11T13:28:02.402Z,2.50
2022-09-11T13:30:30.618Z,3.08
2022-09-11T13:33:16.166Z,2.70
2022-09-11T13:35:46.658Z,3.33
2022-09-11T13:38:27.064Z,2.53
2022-09-11T13:40:59.750Z,2.22
2022-09-11T13:43:45.640Z,2.65
2022-09-11T13:46:16.349Z,2.55
2022-09-11T13:48:47.309Z,2.90
2022-09-11T13:51:27.541Z,2.55
2022-09-11T13:54:04.958Z,2.42
2022-09-11T13:56:47.748Z,2.28
2022-09-11T13:59:38.228Z,2.50
2022-09-11T14:02:46.751Z,2.97
2022-09-11T14:05:22.340Z,3.10
2022-09-11T14:08:22.731Z,3.22
2022-09-11T14:10:58.512Z,2.88
2022-09-11T14:13:56.842Z,3.03
2022-09-11T14:16:36.659Z,3.47
2022-09-11T14:19:19.814Z,2.45
2022-09-11T14:21:51.992Z,3.28
2022-09-11T14:24:40.285Z,3.60
2022-09-11T14:27:33.232Z,3.40
2022-09-11T14:30:01.583Z,3.30
2022-09-11T14:32:40.646Z,3.05
2022-09-11T14:35:10.673Z,3.38
2022-09-11T14:37:46.477Z,3.47
2022-09-11T14:40:19.651Z,3.35
2022-09-11T14:42:49.032Z,3.60
2022-09-11T14:45:24.773Z,3.72
2022-09-11T14:47:53.709Z,3.47
2022-09-11T14:50:21.943Z,3.40
2022-09-11T14:52:50.029Z,3.72
2022-09-11T14:55:20.319Z,3.83
2022-09-11T14:57:48.404Z,3.90
2022-09-11T15:00:19.700Z,4.28
2022-09-11T15:02:48.195Z,4.00
2022-09-11T15:05:19.637Z,4.18
2022-09-11T15:07:49.255Z,4.18
2022-09-11T15:10:17.506Z,3.97
2022-09-11T15:12:45.390Z,4.05
2022-09-11T15:15:18.074Z,3.97
2022-09-11T15:17:46.369Z,4.10
2022-09-11T15:20:14.414Z,3.83
2022-09-11T15:22:42.811Z,3.63
2022-09-11T15:25:12.594Z,3.67
2022-09-11T15:27:40.725Z,4.57
2022-09-11T15:30:11.691Z,3.80
2022-09-11T15:32:39.906Z,3.90
2022-09-11T15:35:08.477Z,5.25
2022-09-11T15:37:36.664Z,4.80
2022-09-11T15:40:06.866Z,4.10
2022-09-11T15:42:39.340Z,3.80
2022-09-11T15:45:09.314Z,5.00
2022-09-11T15:47:38.255Z,4.32
2022-09-11T15:50:07.946Z,4.68
2022-09-11T15:52:37.052Z,4.80
2022-09-11T15:55:05.960Z,4.22
2022-09-11T15:57:34.851Z,4.05
2022-09-11T16:00:04.950Z,4.63
2022-09-11T16:02:39.818Z,4.63
2022-09-11T16:05:08.429Z,5.00
2022-09-11T16:07:36.443Z,4.88
2022-09-11T16:10:05.615Z,4.82
2022-09-11T16:12:36.472Z,5.35
2022-09-11T16:15:05.007Z,5.70
2022-09-11T16:17:33.127Z,5.30
2022-09-11T16:20:01.388Z,5.43
2022-09-11T16:22:31.612Z,5.22
2022-09-11T16:24:59.741Z,5.88
2022-09-11T16:27:28.296Z,4.50
2022-09-11T16:30:32.201Z,5.47
2022-09-11T16:32:45.676Z,6.05
2022-09-11T16:35:14.407Z,5.20
2022-09-11T16:37:42.674Z,4.43
2022-09-11T16:40:11.405Z,3.28
2022-09-11T16:42:39.511Z,3.92
2022-09-11T16:45:08.235Z,3.20
2022-09-11T16:47:37.295Z,3.13
2022-09-11T16:50:07.433Z,3.05
2022-09-11T16:52:37.516Z,3.42
2022-09-11T16:55:10.003Z,2.65
2022-09-11T16:57:40.051Z,3.60
2022-09-11T17:00:10.675Z,3.15
2022-09-11T17:02:39.055Z,3.42
2022-09-11T17:05:09.422Z,3.60
2022-09-11T17:07:37.754Z,3.72
2022-09-11T17:10:06.635Z,2.70
2022-09-11T17:12:35.161Z,3.67
2022-09-11T17:15:04.044Z,3.90
2022-09-11T17:17:33.481Z,3.50
2022-09-11T17:20:01.822Z,5.63
2022-09-11T17:22:30.415Z,4.78
2022-09-11T17:24:59.259Z,4.80
2022-09-11T17:27:28.392Z,4.70
2022-09-11T17:29:57.839Z,4.30
2022-09-11T17:32:28.848Z,3.28
2022-09-11T17:34:58.792Z,3.67
2022-09-11T17:37:27.643Z,3.97
2022-09-11T17:39:56.888Z,3.58
2022-09-11T17:42:27.670Z,3.30
2022-09-11T17:44:56.811Z,4.78
2022-09-11T17:47:26.160Z,3.63
2022-09-11T17:49:57.343Z,3.65
2022-09-11T17:52:25.576Z,2.22
2022-09-11T17:54:54.268Z,3.58
2022-09-11T17:57:22.357Z,4.03
2022-09-11T17:59:50.658Z,4.10
2022-09-11T18:02:20.111Z,3.97
2022-09-11T18:04:48.766Z,4.22
2022-09-11T18:07:18.264Z,4.63
2022-09-11T18:09:47.252Z,4.53
2022-09-11T18:12:15.822Z,3.58
2022-09-11T18:14:44.310Z,3.80
2022-09-11T18:17:12.621Z,3.90
2022-09-11T18:19:40.914Z,4.10
2022-09-11T18:22:09.794Z,4.30
2022-09-11T18:24:39.841Z,3.92
2022-09-11T18:27:09.788Z,4.68
2022-09-11T18:29:39.918Z,3.90
2022-09-11T18:32:10.031Z,4.18
2022-09-11T18:34:39.125Z,3.05
2022-09-11T18:37:08.239Z,4.05
2022-09-11T18:39:36.679Z,14.05
2022-09-11T18:42:07.794Z,3.47
2022-09-11T18:44:36.366Z,5.07
2022-09-11T18:47:04.757Z,4.00
2022-09-11T18:49:35.416Z,4.00
2022-09-11T18:52:04.019Z,3.90
2022-09-11T18:54:34.175Z,4.55
2022-09-11T18:57:03.942Z,3.40
2022-09-11T18:59:37.946Z,4.15
2022-09-11T19:02:07.006Z,6.15
2022-09-11T19:04:35.893Z,4.60
2022-09-11T19:07:05.337Z,7.47
2022-09-11T19:09:33.489Z,7.32
2022-09-11T19:12:03.770Z,6.25
2022-09-11T19:14:33.187Z,4.80
2022-09-11T19:17:01.851Z,4.82
2022-09-11T19:19:30.192Z,6.97
2022-09-11T19:22:00.211Z,4.22
2022-09-11T19:24:30.620Z,3.10
2022-09-11T19:27:00.175Z,3.78
2022-09-11T19:29:29.180Z,7.38
2022-09-11T19:31:57.366Z,4.50
2022-09-11T19:34:25.403Z,3.08
2022-09-11T19:36:54.117Z,2.67
2022-09-11T19:39:22.976Z,2.83
2022-09-11T19:41:52.025Z,3.38
2022-09-11T19:44:21.155Z,2.45
2022-09-11T19:46:53.711Z,3.10
2022-09-11T19:49:22.072Z,2.53
2022-09-11T19:51:54.047Z,3.33
2022-09-11T19:54:23.155Z,3.00
2022-09-11T19:56:51.813Z,2.97
2022-09-11T19:59:19.853Z,2.65
2022-09-11T20:01:48.428Z,3.28
2022-09-11T20:04:17.777Z,3.17
2022-09-11T20:09:30.268Z,3.53
2022-09-11T20:12:00.598Z,3.13
2022-09-11T20:14:30.469Z,3.40
2022-09-11T20:17:00.441Z,4.22
2022-09-11T20:19:28.701Z,2.75
2022-09-11T20:21:56.825Z,3.60
2022-09-11T20:24:24.837Z,3.63
2022-09-11T20:26:54.868Z,3.22
2022-09-11T20:29:22.829Z,3.42
2022-09-11T20:31:51.651Z,3.42
2022-09-11T20:34:20.415Z,3.80
2022-09-11T20:36:48.477Z,3.03
2022-09-11T20:39:16.833Z,3.33
2022-09-11T20:41:45.297Z,2.78
2022-09-11T20:44:13.376Z,3.42
2022-09-11T20:46:43.691Z,2.33
2022-09-11T20:49:12.582Z,2.38
2022-09-11T20:51:40.904Z,3.10
2022-09-11T20:54:09.868Z,2.72
2022-09-11T20:56:37.982Z,2.80
2022-09-11T20:59:06.353Z,2.97
2022-09-11T21:01:36.136Z,2.80
2022-09-11T21:04:04.956Z,2.78
2022-09-11T21:06:37.188Z,2.67
2022-09-11T21:09:11.232Z,2.38
2022-09-11T21:11:42.406Z,2.80
2022-09-11T21:14:15.176Z,2.73
2022-09-11T21:16:43.974Z,3.30
2022-09-11T21:19:11.988Z,3.30
2022-09-11T21:21:40.507Z,3.55
2022-09-11T21:24:14.811Z,2.08
2022-09-11T21:26:42.831Z,2.38
2022-09-11T21:29:13.686Z,3.25
2022-09-11T21:31:42.056Z,3.00
2022-09-11T21:34:11.088Z,2.58
2022-09-11T21:36:39.089Z,2.72
2022-09-11T21:39:07.182Z,3.17
2022-09-11T21:41:35.987Z,3.22
2022-09-11T21:44:04.593Z,3.22
2022-09-11T21:46:34.599Z,2.83
2022-09-11T21:49:05.081Z,3.13
2022-09-11T21:51:33.073Z,2.88
2022-09-11T21:54:02.093Z,3.70
2022-09-11T21:56:32.730Z,3.22
2022-09-11T21:59:01.369Z,3.67
2022-09-11T22:01:32.001Z,3.33
2022-09-11T22:04:00.485Z,3.70
2022-09-11T22:06:29.998Z,2.72
2022-09-11T22:08:58.319Z,2.70
2022-09-11T22:11:26.563Z,3.40
2022-09-11T22:13:55.080Z,3.15
2022-09-11T22:16:23.706Z,3.70
2022-09-11T22:18:54.642Z,3.85
2022-09-11T22:21:23.245Z,2.95
2022-09-11T22:23:51.840Z,3.42
2022-09-11T22:26:21.645Z,2.88
2022-09-11T22:28:49.608Z,3.65
2022-09-11T22:31:23.954Z,3.35
2022-09-11T22:33:54.039Z,2.95
2022-09-11T22:36:28.885Z,3.22
2022-09-11T22:38:59.142Z,3.03
2022-09-11T22:41:27.567Z,3.92
2022-09-11T22:43:55.518Z,3.50
2022-09-11T22:46:24.625Z,3.90
2022-09-11T22:48:53.147Z,3.70
2022-09-11T22:51:21.190Z,3.72
2022-09-11T22:53:49.236Z,3.53
2022-09-11T22:56:17.444Z,4.30
2022-09-11T22:58:45.662Z,3.63
2022-09-11T23:01:22.346Z,2.88
2022-09-11T23:03:54.895Z,3.28
2022-09-11T23:06:41.546Z,3.75
2022-09-11T23:09:17.044Z,3.33
2022-09-11T23:11:46.441Z,4.18
2022-09-11T23:14:15.153Z,4.63
2022-09-11T23:16:43.527Z,4.25
2022-09-11T23:19:14.968Z,4.63
2022-09-11T23:21:43.432Z,3.92
2022-09-11T23:24:14.760Z,4.03
2022-09-11T23:26:43.691Z,4.55
2022-09-11T23:29:12.792Z,4.90
2022-09-11T23:31:41.543Z,4.68
2022-09-11T23:34:14.317Z,4.82
2022-09-11T23:36:43.460Z,3.67
2022-09-11T23:39:11.650Z,4.45
2022-09-11T23:41:39.601Z,4.60
2022-09-11T23:44:07.638Z,4.57
2022-09-11T23:46:35.693Z,3.10
2022-09-11T23:49:03.552Z,4.22
2022-09-11T23:51:32.875Z,3.35
2022-09-11T23:54:01.050Z,3.38
2022-09-11T23:56:28.915Z,4.20
2022-09-11T23:58:56.850Z,3.70
